Search for airport 
image banner adimage banner ad
image banner ad

WBKU - Kuala Penyu

Located in , Malaysia

ICAO - WBKU, IATA -

Data provided by Airmate  

General information

Coordinates: N5°35'59" E115°34'28"
Elevation is 6 feet MSL.
 
Rated:
View ratings: [VIEW]


View others Airports in Sabah

Operational data

Open for public use
Current time UTC:
Current local time:
Weather at : WBKL - Labuan ( 49 km )
METAR: WBKL 181100Z VRB02KT 4000 HZ FEW016 SCT140 BKN290 29/25 Q1010
TAF: TAF WBKL 180500Z 1806/1906 VRB03KT 4000 HZ FEW016
View NOTAMs / SUP AIP / TFR affecting this airport [VIEW]
Communications frequencies: [VIEW]

Runways:

RWY identifierQFULength (ft)Width (ft)SurfaceLDA (ft)
0300
2100

Airport contact information

Address: Malaysia

Satellite view of WBKU